Terminal Aerodrome Forecast
Issued by NWS North Platte, NE

Home | Current Version | Previous Version | Text Only | Print | Product List | Glossary Off
Versions: 1 2 3 4 5 6 7 8 9 10 11 12 13 14 15 16 17 18

000
FTUS43 KLBF 071600 AAD
TAFVTN
TAF AMD
KVTN 071630Z 0717/0812 36010KT P6SM -RA VCTS SCT050CB OVC100
      TEMPO 0717/0718 VRB15G25KT 5SM TSRA
     FM071900 31006KT P6SM VCTS BKN045CB OVC120
     FM072100 01012G18KT P6SM BKN120
     FM080100 35006KT P6SM SCT120=

USA.gov is the U.S. government's official web portal to all federal, state and local government web resources and services.